Time;durP1;ratioP1;P1;durP2;ratioP2;P2;SDS_P1;SDS_P2;PMS_P1;PMS_P2;Temp;Humidity;BMP_temperature;BMP_pressure;BME280_temperature;BME280_humidity;BME280_pressure;Samples;Min_cycle;Max_cycle;Signal;HPM_P1;HPM_P2
2023/12/15 07:50:42;;;;;;;31.60;12.30;;;;;;;;;;5484511;23;20057;-85
2023/12/15 07:53:07;;;;;;;35.45;12.80;;;;;;;;;;4877588;29;20481;-85
2023/12/15 07:55:33;;;;;;;42.47;14.00;;;;;;;;;;4862846;29;20108;-86
2023/12/15 07:57:58;;;;;;;34.25;12.73;;;;;;;;;;4848669;29;20558;-85
2023/12/15 08:00:23;;;;;;;37.42;13.48;;;;;;;;;;4877750;29;20543;-85
2023/12/15 08:02:49;;;;;;;32.80;13.55;;;;;;;;;;4863650;29;20028;-86
2023/12/15 08:05:14;;;;;;;29.08;11.93;;;;;;;;;;4861993;29;20044;-86
2023/12/15 08:07:40;;;;;;;32.15;12.63;;;;;;;;;;4872880;29;20037;-85
2023/12/15 08:10:05;;;;;;;36.63;12.88;;;;;;;;;;4859344;29;20073;-85
2023/12/15 08:12:30;;;;;;;38.33;12.52;;;;;;;;;;4861028;29;20497;-85
2023/12/15 08:14:56;;;;;;;38.55;12.27;;;;;;;;;;4853875;29;20029;-86
2023/12/15 08:17:21;;;;;;;48.63;15.07;;;;;;;;;;4856967;29;20097;-85
2023/12/15 08:19:46;;;;;;;36.45;14.23;;;;;;;;;;4863840;29;20121;-85
2023/12/15 08:22:11;;;;;;;39.33;13.45;;;;;;;;;;4857024;29;20498;-86
2023/12/15 08:24:37;;;;;;;35.10;11.70;;;;;;;;;;4860243;29;20025;-86
2023/12/15 08:27:02;;;;;;;34.67;14.40;;;;;;;;;;4857243;29;20144;-84
2023/12/15 08:29:27;;;;;;;34.88;14.82;;;;;;;;;;4853468;29;20044;-85
2023/12/15 08:31:53;;;;;;;33.58;13.07;;;;;;;;;;4872368;29;20438;-85
2023/12/15 08:34:18;;;;;;;27.20;12.07;;;;;;;;;;4878443;29;20036;-85
2023/12/15 08:36:46;;;;;;;34.03;12.02;;;;;;;;;;4861407;29;20020;-86
2023/12/15 08:39:12;;;;;;;31.42;12.10;;;;;;;;;;4858318;29;20045;-85
2023/12/15 08:41:37;;;;;;;35.08;12.05;;;;;;;;;;4864804;29;20040;-86
2023/12/15 08:44:02;;;;;;;31.38;12.75;;;;;;;;;;4861249;29;20030;-86
2023/12/15 08:46:28;;;;;;;38.45;13.25;;;;;;;;;;4862238;29;20109;-84
2023/12/15 08:48:53;;;;;;;38.22;12.52;;;;;;;;;;4863465;29;20119;-85
2023/12/15 08:51:18;;;;;;;33.08;12.00;;;;;;;;;;4856934;29;20708;-84
2023/12/15 08:53:44;;;;;;;35.38;13.00;;;;;;;;;;4879637;29;20033;-85
2023/12/15 08:56:09;;;;;;;31.42;12.93;;;;;;;;;;4860393;29;20530;-85
2023/12/15 08:58:35;;;;;;;40.20;13.18;;;;;;;;;;4863337;29;20032;-86
2023/12/15 09:01:00;;;;;;;29.85;11.45;;;;;;;;;;4863098;29;20037;-85
2023/12/15 09:03:26;;;;;;;31.38;12.25;;;;;;;;;;4863275;29;20081;-86
2023/12/15 09:05:51;;;;;;;37.17;12.35;;;;;;;;;;4867113;29;20066;-85
2023/12/15 09:08:16;;;;;;;34.50;12.43;;;;;;;;;;4863574;29;20028;-85
2023/12/15 09:10:46;;;;;;;35.95;13.82;;;;;;;;;;4875955;29;20049;-86
2023/12/15 09:13:12;;;;;;;40.40;13.10;;;;;;;;;;4856586;29;20040;-86
2023/12/15 09:15:38;;;;;;;35.90;13.43;;;;;;;;;;4859765;29;20032;-86
2023/12/15 09:18:03;;;;;;;35.08;12.52;;;;;;;;;;4870388;29;20457;-86
2023/12/15 09:20:28;;;;;;;48.88;14.23;;;;;;;;;;4858571;29;20026;-85
2023/12/15 09:22:59;;;;;;;34.80;13.43;;;;;;;;;;4863098;29;20386;-86
2023/12/15 09:25:25;;;;;;;39.20;13.60;;;;;;;;;;4850535;29;20505;-86
2023/12/15 09:27:50;;;;;;;40.45;14.02;;;;;;;;;;4854822;29;20108;-86
2023/12/15 09:30:15;;;;;;;36.92;13.88;;;;;;;;;;4853941;29;20823;-85
2023/12/15 09:32:41;;;;;;;36.53;13.95;;;;;;;;;;4873675;29;20034;-85
2023/12/15 09:35:06;;;;;;;40.22;12.88;;;;;;;;;;4860182;29;20030;-86
2023/12/15 09:37:34;;;;;;;36.53;13.13;;;;;;;;;;4862560;29;20374;-85
2023/12/15 09:40:00;;;;;;;42.17;13.65;;;;;;;;;;4862926;29;20025;-86
2023/12/15 09:42:25;;;;;;;39.17;12.73;;;;;;;;;;4856208;29;20204;-86
2023/12/15 09:44:51;;;;;;;41.33;13.60;;;;;;;;;;4863052;29;20031;-86
2023/12/15 09:47:19;;;;;;;36.88;12.63;;;;;;;;;;4862099;29;20032;-85
2023/12/15 09:49:47;;;;;;;28.42;11.32;;;;;;;;;;4867781;29;20370;-85
2023/12/15 09:52:13;;;;;;;30.05;12.05;;;;;;;;;;4857609;29;20489;-85
2023/12/15 09:54:39;;;;;;;31.65;12.30;;;;;;;;;;4861900;29;20025;-86
2023/12/15 09:57:04;;;;;;;40.28;11.65;;;;;;;;;;4877074;29;20085;-86
2023/12/15 09:59:30;;;;;;;29.75;11.18;;;;;;;;;;4863790;29;20026;-86
2023/12/15 10:01:55;;;;;;;31.02;11.13;;;;;;;;;;4861221;29;20037;-85
2023/12/15 10:04:23;;;;;;;36.80;12.38;;;;;;;;;;4860771;29;20025;-85
2023/12/15 10:06:49;;;;;;;31.45;11.20;;;;;;;;;;4886666;29;20037;-86
2023/12/15 10:09:14;;;;;;;35.75;10.43;;;;;;;;;;4859431;29;20057;-87
2023/12/15 10:11:40;;;;;;;30.98;10.35;;;;;;;;;;4876045;29;20021;-87
2023/12/15 10:14:07;;;;;;;28.35;10.63;;;;;;;;;;4859370;29;20393;-87
2023/12/15 10:16:33;;;;;;;28.65;10.88;;;;;;;;;;4858798;29;20103;-85
2023/12/15 10:18:58;;;;;;;26.23;10.45;;;;;;;;;;4870017;29;20445;-86
2023/12/15 10:21:23;;;;;;;32.10;10.88;;;;;;;;;;4881121;29;20043;-86
2023/12/15 10:23:49;;;;;;;21.48;9.52;;;;;;;;;;4866433;29;20041;-86
2023/12/15 10:26:14;;;;;;;24.00;9.30;;;;;;;;;;4860013;29;20234;-85
2023/12/15 10:28:40;;;;;;;29.95;10.13;;;;;;;;;;4862167;29;20530;-86
2023/12/15 10:31:05;;;;;;;26.95;9.05;;;;;;;;;;4860437;29;20132;-79
2023/12/15 10:33:32;;;;;;;34.55;10.93;;;;;;;;;;4874393;29;20459;-80
2023/12/15 10:36:00;;;;;;;28.92;10.00;;;;;;;;;;4872405;29;20025;-80
2023/12/15 10:38:25;;;;;;;27.90;9.07;;;;;;;;;;4866227;29;20064;-80
2023/12/15 10:40:51;;;;;;;23.17;8.10;;;;;;;;;;4882371;29;20096;-80
2023/12/15 10:43:16;;;;;;;25.75;8.63;;;;;;;;;;4866030;29;20464;-79
2023/12/15 10:45:42;;;;;;;26.58;9.07;;;;;;;;;;4887161;29;20101;-80
2023/12/15 10:48:07;;;;;;;26.60;9.07;;;;;;;;;;4878578;29;20029;-80
2023/12/15 10:50:33;;;;;;;26.05;8.70;;;;;;;;;;4857882;29;20418;-80
2023/12/15 10:52:59;;;;;;;22.85;8.73;;;;;;;;;;4875800;29;20400;-80
2023/12/15 10:55:26;;;;;;;28.00;8.15;;;;;;;;;;4856571;29;20038;-80
2023/12/15 10:57:52;;;;;;;24.80;8.65;;;;;;;;;;4857669;29;20116;-80
2023/12/15 11:00:17;;;;;;;23.63;8.77;;;;;;;;;;4870550;29;20155;-80
2023/12/15 11:02:44;;;;;;;20.20;7.70;;;;;;;;;;4853280;29;20112;-80
2023/12/15 11:05:10;;;;;;;20.25;7.00;;;;;;;;;;4860492;29;20434;-79
2023/12/15 11:07:35;;;;;;;24.67;6.78;;;;;;;;;;4846339;29;20041;-80
2023/12/15 11:10:00;;;;;;;29.10;7.78;;;;;;;;;;4853979;29;20117;-80
2023/12/15 11:12:30;;;;;;;29.45;7.82;;;;;;;;;;4853320;29;20033;-81
2023/12/15 11:14:59;;;;;;;24.75;8.13;;;;;;;;;;4867206;29;20037;-80
2023/12/15 11:17:24;;;;;;;17.58;7.18;;;;;;;;;;4858748;29;20017;-80
2023/12/15 11:19:51;;;;;;;22.30;6.50;;;;;;;;;;4873983;29;20021;-80
2023/12/15 11:22:17;;;;;;;23.33;6.38;;;;;;;;;;4851857;29;20032;-80
2023/12/15 11:24:43;;;;;;;18.10;6.03;;;;;;;;;;4861958;29;20457;-79
2023/12/15 11:27:10;;;;;;;17.35;6.30;;;;;;;;;;4865882;29;20035;-80
2023/12/15 11:29:36;;;;;;;22.27;6.03;;;;;;;;;;4864339;29;20540;-80
2023/12/15 11:32:30;;;;;;;26.23;7.72;;;;;;;;;;4861273;29;20113;-80
2023/12/15 11:34:57;;;;;;;30.95;8.10;;;;;;;;;;4839044;29;20049;-78
2023/12/15 11:37:23;;;;;;;22.42;7.35;;;;;;;;;;4845956;29;20029;-78
2023/12/15 11:39:49;;;;;;;25.65;6.90;;;;;;;;;;4877189;29;20026;-78
2023/12/15 11:42:15;;;;;;;15.95;6.85;;;;;;;;;;4861483;29;20025;-77
2023/12/15 11:44:43;;;;;;;16.33;6.45;;;;;;;;;;4862129;29;20049;-78
2023/12/15 11:47:08;;;;;;;24.95;6.80;;;;;;;;;;4858003;29;20040;-78
2023/12/15 11:49:33;;;;;;;15.02;6.15;;;;;;;;;;4873557;29;20041;-78
2023/12/15 11:51:58;;;;;;;19.13;6.03;;;;;;;;;;4867177;29;20124;-78
2023/12/15 11:54:25;;;;;;;22.25;5.65;;;;;;;;;;4874530;29;20045;-78
2023/12/15 11:56:51;;;;;;;16.60;5.43;;;;;;;;;;4866149;29;20053;-77
2023/12/15 11:59:16;;;;;;;16.85;5.57;;;;;;;;;;4874407;29;20072;-78
2023/12/15 12:01:42;;;;;;;12.60;5.32;;;;;;;;;;4862519;29;20457;-78
2023/12/15 12:04:16;;;;;;;14.48;5.20;;;;;;;;;;4864988;29;20087;-77
2023/12/15 12:06:42;;;;;;;19.95;5.40;;;;;;;;;;4863275;29;20492;-77
2023/12/15 12:09:10;;;;;;;16.33;4.95;;;;;;;;;;4860613;29;20092;-77
2023/12/15 12:11:36;;;;;;;18.02;4.78;;;;;;;;;;4874201;29;20048;-84
2023/12/15 12:14:03;;;;;;;16.27;4.95;;;;;;;;;;4870873;29;20025;-85
2023/12/15 12:16:31;;;;;;;18.17;7.13;;;;;;;;;;4862139;29;20022;-84
2023/12/15 12:18:56;;;;;;;34.28;10.95;;;;;;;;;;4860887;29;20033;-77
2023/12/15 12:21:21;;;;;;;19.50;5.78;;;;;;;;;;4862278;29;20041;-84
2023/12/15 12:23:48;;;;;;;19.08;5.32;;;;;;;;;;4878648;29;20057;-84
2023/12/15 12:26:13;;;;;;;16.20;5.20;;;;;;;;;;4871745;29;20048;-84
2023/12/15 12:28:40;;;;;;;16.60;5.47;;;;;;;;;;4866902;29;20029;-84
2023/12/15 12:31:05;;;;;;;19.75;5.00;;;;;;;;;;4867115;29;20477;-83
2023/12/15 12:33:30;;;;;;;19.90;5.05;;;;;;;;;;4860656;29;20036;-84
2023/12/15 12:35:56;;;;;;;19.98;5.45;;;;;;;;;;4862667;29;20029;-84
2023/12/15 12:38:21;;;;;;;22.98;5.68;;;;;;;;;;4874129;29;20117;-78
2023/12/15 12:40:46;;;;;;;17.00;4.72;;;;;;;;;;4866425;29;20032;-78
2023/12/15 12:43:12;;;;;;;14.38;5.30;;;;;;;;;;4860876;29;20108;-78
2023/12/15 12:45:37;;;;;;;15.35;4.40;;;;;;;;;;4865448;29;20049;-77
2023/12/15 12:48:02;;;;;;;14.45;4.47;;;;;;;;;;4880935;29;20042;-78
2023/12/15 12:50:29;;;;;;;18.38;4.97;;;;;;;;;;4859606;29;20041;-81
2023/12/15 12:52:54;;;;;;;15.77;5.10;;;;;;;;;;4872926;29;20688;-81
2023/12/15 12:55:19;;;;;;;16.02;4.30;;;;;;;;;;4870174;29;20338;-77
2023/12/15 12:57:45;;;;;;;14.93;4.53;;;;;;;;;;4861995;29;20049;-79
2023/12/15 13:00:10;;;;;;;10.50;3.63;;;;;;;;;;4879876;29;20461;-79
2023/12/15 13:02:38;;;;;;;13.50;4.15;;;;;;;;;;4861517;29;20486;-77
2023/12/15 13:05:05;;;;;;;13.02;4.72;;;;;;;;;;4878052;29;20392;-77
2023/12/15 13:07:31;;;;;;;14.77;4.75;;;;;;;;;;4880765;29;20032;-79
2023/12/15 13:09:56;;;;;;;21.35;5.40;;;;;;;;;;4865195;29;20022;-79
2023/12/15 13:12:21;;;;;;;20.55;4.13;;;;;;;;;;4867199;29;20049;-79
2023/12/15 13:14:46;;;;;;;13.07;3.92;;;;;;;;;;4882523;29;20025;-79
2023/12/15 13:17:12;;;;;;;13.18;3.60;;;;;;;;;;4861899;29;20033;-79
2023/12/15 13:19:38;;;;;;;11.70;4.60;;;;;;;;;;4860516;29;20060;-79
2023/12/15 13:22:03;;;;;;;17.15;4.57;;;;;;;;;;4868786;29;20334;-79
2023/12/15 13:24:28;;;;;;;18.30;4.20;;;;;;;;;;4862716;29;20029;-80
2023/12/15 13:26:54;;;;;;;21.98;4.15;;;;;;;;;;4862865;29;20021;-79
2023/12/15 13:29:19;;;;;;;16.27;3.92;;;;;;;;;;4859797;29;20143;-79
2023/12/15 13:31:44;;;;;;;16.17;4.57;;;;;;;;;;4868219;29;20032;-79
2023/12/15 13:34:09;;;;;;;25.83;4.07;;;;;;;;;;4866170;29;20033;-79
2023/12/15 13:36:35;;;;;;;10.68;3.38;;;;;;;;;;4882668;29;20089;-79
2023/12/15 13:39:00;;;;;;;8.07;2.85;;;;;;;;;;4864715;29;20021;-79
2023/12/15 13:41:25;;;;;;;13.55;3.20;;;;;;;;;;4870634;29;20064;-79
2023/12/15 13:43:50;;;;;;;13.05;3.45;;;;;;;;;;4862964;29;20097;-79
2023/12/15 13:46:19;;;;;;;15.82;3.70;;;;;;;;;;4872344;29;20029;-79
2023/12/15 13:48:44;;;;;;;10.82;3.30;;;;;;;;;;4865767;29;20040;-79
2023/12/15 13:51:10;;;;;;;14.73;3.60;;;;;;;;;;4876114;29;20489;-79
2023/12/15 13:53:35;;;;;;;11.27;2.80;;;;;;;;;;4874798;29;20037;-79
2023/12/15 13:56:00;;;;;;;14.43;3.75;;;;;;;;;;4860220;29;20021;-79
2023/12/15 13:58:25;;;;;;;11.02;3.42;;;;;;;;;;4867329;29;20033;-79
2023/12/15 14:00:51;;;;;;;13.30;2.80;;;;;;;;;;4867949;29;20120;-79
2023/12/15 14:03:16;;;;;;;12.90;4.00;;;;;;;;;;4879870;29;20061;-79
2023/12/15 14:05:41;;;;;;;14.07;3.50;;;;;;;;;;4864242;29;20088;-79
2023/12/15 14:08:07;;;;;;;12.45;3.65;;;;;;;;;;4882009;29;20505;-79
2023/12/15 14:10:34;;;;;;;16.55;3.25;;;;;;;;;;4870367;29;20037;-79
2023/12/15 14:12:59;;;;;;;9.82;2.63;;;;;;;;;;4871278;29;20441;-79
2023/12/15 14:15:24;;;;;;;12.57;2.90;;;;;;;;;;4860409;29;20053;-79
2023/12/15 14:17:50;;;;;;;16.52;2.80;;;;;;;;;;4871396;29;20051;-79
2023/12/15 14:20:15;;;;;;;15.55;2.58;;;;;;;;;;4868754;29;20045;-79
2023/12/15 14:22:41;;;;;;;14.43;2.78;;;;;;;;;;4865867;29;20104;-79
2023/12/15 14:25:07;;;;;;;13.43;3.08;;;;;;;;;;4868756;29;20525;-77
2023/12/15 14:27:32;;;;;;;9.23;2.72;;;;;;;;;;4865685;29;20024;-77
2023/12/15 14:29:58;;;;;;;9.40;2.45;;;;;;;;;;4869701;29;20037;-77
2023/12/15 14:32:23;;;;;;;13.40;2.50;;;;;;;;;;4883684;29;20057;-77
2023/12/15 14:34:48;;;;;;;10.73;2.80;;;;;;;;;;4855689;29;20061;-77
2023/12/15 14:37:14;;;;;;;12.68;2.40;;;;;;;;;;4882983;29;20053;-77
2023/12/15 14:39:39;;;;;;;14.85;3.00;;;;;;;;;;4861883;29;20029;-77
2023/12/15 14:42:05;;;;;;;14.43;2.80;;;;;;;;;;4864084;29;20489;-77
2023/12/15 14:44:30;;;;;;;10.07;2.53;;;;;;;;;;4868301;29;20157;-77
2023/12/15 14:46:55;;;;;;;9.60;2.38;;;;;;;;;;4877341;29;20487;-77
2023/12/15 14:49:20;;;;;;;8.43;2.50;;;;;;;;;;4878982;29;20498;-77
2023/12/15 14:51:46;;;;;;;15.75;3.05;;;;;;;;;;4858461;29;20437;-79
2023/12/15 14:54:11;;;;;;;13.48;3.28;;;;;;;;;;4858277;29;20394;-80
2023/12/15 14:56:36;;;;;;;9.95;2.67;;;;;;;;;;4870457;29;20112;-79
2023/12/15 14:59:01;;;;;;;14.07;2.97;;;;;;;;;;4859620;29;20787;-77
2023/12/15 15:01:27;;;;;;;11.52;3.20;;;;;;;;;;4860118;29;20026;-77
2023/12/15 15:03:52;;;;;;;14.55;3.55;;;;;;;;;;4863796;29;20624;-79
2023/12/15 15:06:17;;;;;;;16.67;2.80;;;;;;;;;;4874646;29;20082;-79
2023/12/15 15:08:46;;;;;;;12.38;3.55;;;;;;;;;;4874720;29;20040;-79
2023/12/15 15:11:11;;;;;;;9.30;2.67;;;;;;;;;;4860400;29;20085;-79
2023/12/15 15:13:37;;;;;;;15.80;3.33;;;;;;;;;;4876715;29;20025;-79
2023/12/15 15:16:02;;;;;;;12.75;3.13;;;;;;;;;;4870548;29;20029;-79
2023/12/15 15:18:28;;;;;;;16.55;3.17;;;;;;;;;;4855989;29;20022;-79
2023/12/15 15:20:53;;;;;;;14.45;2.78;;;;;;;;;;4880492;29;20060;-79
2023/12/15 15:23:18;;;;;;;12.13;2.80;;;;;;;;;;4871167;29;20060;-79
2023/12/15 15:25:44;;;;;;;18.20;3.50;;;;;;;;;;4856456;29;20030;-77
2023/12/15 15:28:09;;;;;;;12.13;2.83;;;;;;;;;;4859379;29;20025;-77
2023/12/15 15:30:35;;;;;;;12.98;2.80;;;;;;;;;;4861647;29;20063;-83
2023/12/15 15:33:00;;;;;;;10.13;2.92;;;;;;;;;;4870886;29;20490;-82
2023/12/15 15:35:26;;;;;;;12.25;3.03;;;;;;;;;;4860408;29;20022;-82
2023/12/15 15:37:51;;;;;;;15.43;2.53;;;;;;;;;;4859764;29;20057;-78
2023/12/15 15:40:16;;;;;;;10.82;2.83;;;;;;;;;;4856722;29;20132;-78
2023/12/15 15:42:41;;;;;;;12.00;3.10;;;;;;;;;;4858626;29;20044;-77
2023/12/15 15:45:10;;;;;;;16.88;3.28;;;;;;;;;;4865860;29;20029;-77
2023/12/15 15:47:35;;;;;;;13.25;2.55;;;;;;;;;;4854840;29;20029;-77
2023/12/15 15:50:00;;;;;;;8.80;2.92;;;;;;;;;;4856325;29;20441;-77
2023/12/15 15:52:25;;;;;;;15.85;3.28;;;;;;;;;;4850076;29;20035;-79
2023/12/15 15:54:51;;;;;;;14.20;3.03;;;;;;;;;;4884687;29;20425;-77
2023/12/15 15:57:16;;;;;;;16.98;2.97;;;;;;;;;;4874636;29;20365;-83
2023/12/15 15:59:42;;;;;;;10.82;2.90;;;;;;;;;;4873177;29;20036;-83
2023/12/15 16:02:07;;;;;;;13.23;3.45;;;;;;;;;;4854400;29;20057;-86
2023/12/15 16:04:32;;;;;;;10.18;3.00;;;;;;;;;;4861687;29;20053;-85
2023/12/15 16:06:57;;;;;;;13.70;3.13;;;;;;;;;;4873659;29;20022;-85
2023/12/15 16:09:23;;;;;;;10.05;3.30;;;;;;;;;;4870666;29;20033;-84
2023/12/15 16:11:48;;;;;;;18.23;3.33;;;;;;;;;;4857172;29;20129;-84
2023/12/15 16:14:13;;;;;;;17.38;3.60;;;;;;;;;;4856446;29;20033;-84
2023/12/15 16:16:39;;;;;;;10.38;3.25;;;;;;;;;;4860117;29;20112;-83
2023/12/15 16:19:04;;;;;;;18.65;4.85;;;;;;;;;;4858656;29;20104;-85
2023/12/15 16:21:33;;;;;;;17.60;5.78;;;;;;;;;;4853249;29;20030;-84
2023/12/15 16:23:58;;;;;;;17.70;5.35;;;;;;;;;;4857191;29;20754;-79
2023/12/15 16:26:25;;;;;;;17.75;5.72;;;;;;;;;;4857883;29;20026;-78
2023/12/15 16:28:50;;;;;;;24.33;6.43;;;;;;;;;;4856270;29;20040;-79
2023/12/15 16:31:15;;;;;;;21.60;6.18;;;;;;;;;;4859239;29;20345;-78
2023/12/15 16:33:41;;;;;;;18.90;6.07;;;;;;;;;;4863204;29;20117;-84
2023/12/15 16:36:07;;;;;;;25.15;7.32;;;;;;;;;;4854715;29;20454;-83
2023/12/15 16:38:33;;;;;;;17.75;4.18;;;;;;;;;;4853104;29;20033;-84
2023/12/15 16:40:58;;;;;;;14.88;5.03;;;;;;;;;;4849747;29;20022;-83
2023/12/15 16:43:23;;;;;;;14.05;4.90;;;;;;;;;;4870328;29;20052;-84
2023/12/15 16:45:48;;;;;;;13.23;4.82;;;;;;;;;;4864373;29;20029;-84
2023/12/15 16:48:14;;;;;;;9.02;4.10;;;;;;;;;;4848804;29;20048;-85
2023/12/15 16:50:39;;;;;;;10.95;3.67;;;;;;;;;;4853558;29;20101;-85
2023/12/15 16:53:04;;;;;;;15.32;3.75;;;;;;;;;;4855877;29;20037;-85
2023/12/15 16:55:30;;;;;;;14.10;3.92;;;;;;;;;;4862787;29;20529;-78
2023/12/15 16:57:55;;;;;;;9.32;3.88;;;;;;;;;;4858488;29;20602;-79
2023/12/15 17:00:20;;;;;;;12.45;3.45;;;;;;;;;;4859123;29;20068;-79
2023/12/15 17:02:46;;;;;;;8.95;2.78;;;;;;;;;;4859814;29;20042;-79
2023/12/15 17:05:11;;;;;;;15.90;3.65;;;;;;;;;;4857935;29;20029;-84
2023/12/15 17:07:36;;;;;;;13.90;3.30;;;;;;;;;;4871378;29;20136;-83
2023/12/15 17:10:02;;;;;;;18.08;4.00;;;;;;;;;;4884656;29;20033;-84
2023/12/15 17:12:27;;;;;;;8.80;3.08;;;;;;;;;;4861551;29;20036;-79
2023/12/15 17:14:52;;;;;;;13.35;3.20;;;;;;;;;;4861307;29;20022;-79
2023/12/15 17:17:17;;;;;;;14.57;3.75;;;;;;;;;;4860964;29;20089;-79
2023/12/15 17:19:43;;;;;;;13.50;3.65;;;;;;;;;;4868284;29;20166;-79
2023/12/15 17:22:08;;;;;;;12.45;3.08;;;;;;;;;;4873943;29;20025;-79
2023/12/15 17:24:33;;;;;;;9.73;2.95;;;;;;;;;;4861942;29;20030;-79
2023/12/15 17:26:58;;;;;;;10.55;3.20;;;;;;;;;;4875288;29;20025;-79
2023/12/15 17:29:24;;;;;;;8.90;2.88;;;;;;;;;;4860312;29;20108;-79
2023/12/15 17:31:49;;;;;;;21.35;4.28;;;;;;;;;;4861317;29;20147;-78
2023/12/15 17:34:14;;;;;;;14.38;3.65;;;;;;;;;;4861625;29;20058;-79
2023/12/15 17:36:42;;;;;;;14.48;3.25;;;;;;;;;;4860690;29;20033;-79
2023/12/15 17:39:08;;;;;;;18.30;3.55;;;;;;;;;;4859811;29;20022;-79
2023/12/15 17:41:33;;;;;;;16.60;4.65;;;;;;;;;;4873530;29;20021;-79
2023/12/15 17:43:59;;;;;;;22.00;6.20;;;;;;;;;;4859248;29;20030;-84
2023/12/15 17:46:28;;;;;;;17.23;5.10;;;;;;;;;;4873337;29;20049;-85
2023/12/15 17:48:54;;;;;;;15.13;5.22;;;;;;;;;;4874601;29;20440;-85
2023/12/15 17:51:19;;;;;;;13.82;5.90;;;;;;;;;;4871177;29;20109;-86
2023/12/15 17:53:44;;;;;;;15.40;4.57;;;;;;;;;;4859550;29;20063;-85
2023/12/15 17:56:10;;;;;;;17.30;4.57;;;;;;;;;;4860752;29;20029;-83
2023/12/15 17:58:36;;;;;;;11.95;4.13;;;;;;;;;;4874867;29;20053;-87
2023/12/15 18:01:01;;;;;;;15.90;4.28;;;;;;;;;;4874355;29;20026;-85
2023/12/15 18:03:26;;;;;;;13.25;4.60;;;;;;;;;;4861164;29;20092;-87
2023/12/15 18:05:52;;;;;;;13.50;4.97;;;;;;;;;;4859922;29;20029;-85
2023/12/15 18:08:17;;;;;;;23.70;5.18;;;;;;;;;;4874750;29;20124;-84
2023/12/15 18:10:45;;;;;;;15.40;5.18;;;;;;;;;;4874810;29;20037;-84
2023/12/15 18:13:10;;;;;;;17.63;4.50;;;;;;;;;;4874194;29;20442;-86
2023/12/15 18:15:36;;;;;;;13.60;5.00;;;;;;;;;;4874259;29;20109;-76
2023/12/15 18:18:01;;;;;;;15.00;4.30;;;;;;;;;;4874339;29;20362;-76
2023/12/15 18:20:26;;;;;;;14.00;4.70;;;;;;;;;;4859102;29;20025;-77
2023/12/15 18:22:52;;;;;;;15.98;5.88;;;;;;;;;;4860500;29;20386;-77
2023/12/15 18:25:17;;;;;;;13.02;5.78;;;;;;;;;;4860414;29;20586;-77
2023/12/15 18:27:43;;;;;;;13.25;4.70;;;;;;;;;;4860498;29;20021;-76
2023/12/15 18:30:08;;;;;;;15.38;4.75;;;;;;;;;;4859823;29;20032;-78
2023/12/15 18:32:34;;;;;;;12.80;5.32;;;;;;;;;;4860677;29;20040;-78
2023/12/15 18:34:59;;;;;;;13.45;5.90;;;;;;;;;;4875051;29;20029;-78
2023/12/15 18:37:24;;;;;;;19.10;6.65;;;;;;;;;;4874080;29;20036;-78
2023/12/15 18:39:53;;;;;;;24.20;6.65;;;;;;;;;;4874340;29;20538;-78
2023/12/15 18:42:18;;;;;;;15.02;5.35;;;;;;;;;;4860236;29;20398;-85
2023/12/15 18:44:44;;;;;;;13.55;5.25;;;;;;;;;;4860450;29;20395;-85
2023/12/15 18:47:10;;;;;;;20.30;4.85;;;;;;;;;;4874743;29;20473;-85
2023/12/15 18:49:36;;;;;;;16.25;4.63;;;;;;;;;;4860107;29;20581;-84
2023/12/15 18:52:01;;;;;;;18.48;4.55;;;;;;;;;;4855156;29;20097;-85
2023/12/15 18:54:26;;;;;;;15.85;4.07;;;;;;;;;;4860415;29;20022;-84
2023/12/15 18:56:52;;;;;;;13.85;4.22;;;;;;;;;;4874572;29;20025;-85
2023/12/15 18:59:17;;;;;;;10.65;3.33;;;;;;;;;;4874238;29;20030;-83
2023/12/15 19:01:42;;;;;;;12.27;3.60;;;;;;;;;;4873970;29;20090;-84
2023/12/15 19:04:08;;;;;;;12.75;3.90;;;;;;;;;;4859396;29;20469;-83
2023/12/15 19:06:33;;;;;;;14.50;3.92;;;;;;;;;;4874387;29;20033;-78
2023/12/15 19:08:59;;;;;;;9.80;3.35;;;;;;;;;;4860007;29;20033;-78
2023/12/15 19:11:25;;;;;;;15.93;4.55;;;;;;;;;;4859879;29;20123;-78
2023/12/15 19:13:50;;;;;;;12.95;4.00;;;;;;;;;;4872940;29;20461;-78
2023/12/15 19:16:15;;;;;;;17.60;4.85;;;;;;;;;;4873556;29;20029;-78
2023/12/15 19:18:41;;;;;;;9.20;4.40;;;;;;;;;;4859206;29;20158;-78
2023/12/15 19:21:06;;;;;;;12.70;4.07;;;;;;;;;;4874072;29;20124;-83
2023/12/15 19:23:31;;;;;;;11.63;4.43;;;;;;;;;;4856568;29;20025;-83
2023/12/15 19:25:56;;;;;;;15.98;4.35;;;;;;;;;;4857658;29;20026;-86
2023/12/15 19:28:22;;;;;;;14.52;3.70;;;;;;;;;;4857139;29;20037;-83
2023/12/15 19:30:47;;;;;;;15.23;4.28;;;;;;;;;;4858457;29;20116;-84
2023/12/15 19:33:12;;;;;;;12.00;4.60;;;;;;;;;;4867289;29;20132;-79
2023/12/15 19:35:40;;;;;;;15.13;4.18;;;;;;;;;;4855386;29;20037;-79
2023/12/15 19:38:05;;;;;;;14.00;4.18;;;;;;;;;;4853128;29;20044;-79
2023/12/15 19:40:36;;;;;;;14.50;4.40;;;;;;;;;;4858040;29;20018;-79
2023/12/15 19:43:01;;;;;;;18.33;4.72;;;;;;;;;;4858086;29;20145;-79
2023/12/15 19:45:27;;;;;;;13.13;4.20;;;;;;;;;;4861537;29;20116;-79
2023/12/15 19:47:52;;;;;;;11.10;4.03;;;;;;;;;;4861242;29;20048;-78
2023/12/15 19:50:17;;;;;;;15.85;4.53;;;;;;;;;;4861808;29;20583;-79
2023/12/15 19:52:43;;;;;;;12.32;4.43;;;;;;;;;;4860258;29;20116;-79
2023/12/15 19:55:08;;;;;;;13.80;3.90;;;;;;;;;;4854105;29;20036;-78
2023/12/15 19:57:34;;;;;;;13.25;4.30;;;;;;;;;;4869132;29;20115;-79
2023/12/15 20:00:00;;;;;;;14.18;4.53;;;;;;;;;;4855950;29;20018;-79
2023/12/15 20:02:25;;;;;;;12.52;4.32;;;;;;;;;;4854131;29;20021;-79
2023/12/15 20:04:51;;;;;;;16.45;4.68;;;;;;;;;;4853254;29;20120;-84
2023/12/15 20:07:16;;;;;;;22.33;5.05;;;;;;;;;;4860539;29;20380;-84
2023/12/15 20:09:42;;;;;;;15.77;4.75;;;;;;;;;;4870216;29;20026;-85
2023/12/15 20:12:07;;;;;;;12.77;4.68;;;;;;;;;;4854480;29;20074;-85
2023/12/15 20:14:32;;;;;;;15.20;4.72;;;;;;;;;;4862176;29;20045;-85
2023/12/15 20:16:58;;;;;;;11.40;3.83;;;;;;;;;;4855412;29;20025;-85
2023/12/15 20:19:24;;;;;;;16.08;5.07;;;;;;;;;;4858928;29;20029;-85
2023/12/15 20:21:49;;;;;;;17.60;5.45;;;;;;;;;;4855391;29;20025;-85
2023/12/15 20:24:14;;;;;;;18.83;6.25;;;;;;;;;;4857455;29;20037;-85
2023/12/15 20:26:43;;;;;;;22.45;6.45;;;;;;;;;;4880826;29;20044;-84
2023/12/15 20:29:09;;;;;;;18.25;6.20;;;;;;;;;;4862624;29;20473;-84
2023/12/15 20:31:34;;;;;;;12.32;4.30;;;;;;;;;;4859820;29;20029;-84
2023/12/15 20:34:01;;;;;;;13.88;4.00;;;;;;;;;;4862414;29;20028;-84
2023/12/15 20:36:27;;;;;;;16.80;4.75;;;;;;;;;;4856116;29;20025;-83
2023/12/15 20:38:52;;;;;;;20.25;5.97;;;;;;;;;;4867275;29;20385;-84
2023/12/15 20:41:18;;;;;;;14.60;5.25;;;;;;;;;;4877830;29;20054;-84
2023/12/15 20:43:44;;;;;;;12.52;4.43;;;;;;;;;;4863941;29;20026;-84
2023/12/15 20:46:09;;;;;;;10.85;3.83;;;;;;;;;;4862824;29;20058;-84
2023/12/15 20:48:35;;;;;;;13.80;3.90;;;;;;;;;;4861450;29;20190;-85
2023/12/15 20:51:00;;;;;;;8.40;3.67;;;;;;;;;;4874365;29;20133;-85
2023/12/15 20:53:27;;;;;;;13.00;3.78;;;;;;;;;;4847585;29;20026;-84
2023/12/15 20:55:52;;;;;;;8.98;3.55;;;;;;;;;;4875444;29;20061;-84
2023/12/15 20:58:19;;;;;;;12.90;4.00;;;;;;;;;;4869829;29;20044;-86
2023/12/15 21:00:45;;;;;;;15.25;3.80;;;;;;;;;;4866405;29;20112;-85
2023/12/15 21:03:11;;;;;;;22.60;4.82;;;;;;;;;;4861520;29;20129;-86
2023/12/15 21:05:36;;;;;;;11.93;4.55;;;;;;;;;;4859435;29;20116;-85
2023/12/15 21:08:01;;;;;;;13.07;4.40;;;;;;;;;;4862718;29;20167;-86
2023/12/15 21:10:27;;;;;;;17.90;4.00;;;;;;;;;;4875326;29;20032;-85
2023/12/15 21:12:52;;;;;;;13.13;4.07;;;;;;;;;;4864167;29;20112;-86
2023/12/15 21:15:17;;;;;;;14.68;4.45;;;;;;;;;;4860688;29;20112;-85
2023/12/15 21:17:43;;;;;;;14.48;4.38;;;;;;;;;;4863561;29;20121;-86
2023/12/15 21:20:10;;;;;;;8.60;3.65;;;;;;;;;;4869838;29;20033;-86
2023/12/15 21:22:35;;;;;;;13.75;3.10;;;;;;;;;;4861526;29;20036;-86
2023/12/15 21:25:02;;;;;;;17.95;4.13;;;;;;;;;;4876165;29;20029;-85
2023/12/15 21:27:27;;;;;;;20.52;3.60;;;;;;;;;;4871300;29;20089;-86
2023/12/15 21:29:53;;;;;;;17.70;3.15;;;;;;;;;;4859300;29;20025;-85
2023/12/15 21:32:18;;;;;;;15.55;3.40;;;;;;;;;;4858970;29;20038;-85
2023/12/15 21:34:44;;;;;;;10.88;3.10;;;;;;;;;;4859594;29;20379;-85
2023/12/15 21:37:10;;;;;;;8.88;2.97;;;;;;;;;;4856724;29;20508;-85
2023/12/15 21:39:35;;;;;;;12.73;3.10;;;;;;;;;;4870885;29;20021;-85
2023/12/15 21:42:01;;;;;;;11.70;3.33;;;;;;;;;;4871002;29;20081;-85
2023/12/15 21:44:26;;;;;;;11.40;3.05;;;;;;;;;;4852497;29;20037;-85
2023/12/15 21:46:51;;;;;;;9.13;2.92;;;;;;;;;;4873209;29;20045;-85
2023/12/15 21:49:17;;;;;;;14.18;3.70;;;;;;;;;;4860530;29;20033;-86
2023/12/15 21:51:43;;;;;;;11.57;3.38;;;;;;;;;;4851859;29;20109;-86
2023/12/15 21:54:09;;;;;;;9.18;3.05;;;;;;;;;;4870107;29;20174;-86
2023/12/15 21:56:34;;;;;;;7.45;2.88;;;;;;;;;;4854853;29;20033;-86
2023/12/15 21:58:59;;;;;;;16.63;3.15;;;;;;;;;;4850473;29;20025;-86
2023/12/15 22:01:27;;;;;;;14.55;4.00;;;;;;;;;;4852870;29;20036;-86
2023/12/15 22:03:54;;;;;;;15.98;2.97;;;;;;;;;;4861424;29;20110;-86
2023/12/15 22:06:22;;;;;;;12.70;3.63;;;;;;;;;;4874772;29;20057;-86
2023/12/15 22:08:47;;;;;;;10.40;3.22;;;;;;;;;;4850123;29;20538;-86